RGA3 LSZB-LSZB

Flight info

Callsign RGA3
Flight time 0h 6m
Altitude 2500
Route VFR HEMS
Aircraft EC45/L-SDGIJ7RY/S

Departure

Time 2026-05-04 20:08
Airport Bern Airport (LSZB)

Arrival

Time 2026-05-04 20:14
Airport Bern Airport (LSZB)
Time Latitude Longitude Altitude Speed Heading
2026-05-04 19:50 46.90959 7.50463 1677 ft 0 kts 52°
2026-05-04 20:06 46.90978 7.50417 1725 ft 19 kts 316°
2026-05-04 20:06 46.91162 7.50070 1781 ft 66 kts 314°
2026-05-04 20:07 46.91582 7.49510 1752 ft 92 kts 315°
2026-05-04 20:07 46.92030 7.48832 1866 ft 96 kts 313°
2026-05-04 20:07 46.92504 7.48076 2041 ft 104 kts 310°
2026-05-04 20:07 46.92955 7.47248 2242 ft 104 kts 306°
2026-05-04 20:08 46.93360 7.46373 2464 ft 104 kts 302°
2026-05-04 20:08 46.93730 7.45446 2634 ft 109 kts 299°
2026-05-04 20:08 46.94125 7.44463 2737 ft 117 kts 302°
2026-05-04 20:08 46.94597 7.43434 2740 ft 125 kts 303°
2026-05-04 20:09 46.94782 7.43042 2741 ft 127 kts 304°
2026-05-04 20:09 46.95226 7.42111 2731 ft 131 kts 304°
2026-05-04 20:09 46.95375 7.41802 2720 ft 132 kts 304°
2026-05-04 20:09 46.95450 7.41644 2700 ft 133 kts 304°
2026-05-04 20:10 46.95659 7.41192 2649 ft 134 kts 303°
2026-05-04 20:10 46.96150 7.40045 2617 ft 130 kts 301°
2026-05-04 20:10 46.96584 7.38914 2645 ft 125 kts 298°
2026-05-04 20:10 46.96971 7.37795 2688 ft 121 kts 295°
2026-05-04 20:11 46.97313 7.36699 2746 ft 119 kts 294°
2026-05-04 20:11 46.97764 7.35718 2834 ft 116 kts 309°
2026-05-04 20:11 46.98318 7.34832 2863 ft 120 kts 314°
2026-05-04 20:11 46.98920 7.33993 2917 ft 118 kts 316°
2026-05-04 20:12 46.99522 7.33195 3010 ft 115 kts 318°
2026-05-04 20:12 47.00092 7.32383 3087 ft 115 kts 302°
2026-05-04 20:12 47.00195 7.31298 3149 ft 116 kts 252°
2026-05-04 20:12 46.99585 7.30674 3094 ft 114 kts 178°
2026-05-04 20:13 46.98994 7.31349 3022 ft 115 kts 118°
2026-05-04 20:13 46.98833 7.32482 2916 ft 115 kts 80°
2026-05-04 20:13 46.99185 7.33499 2830 ft 111 kts 48°
2026-05-04 20:13 46.99773 7.34214 2715 ft 104 kts 45°
2026-05-04 20:14 46.99931 7.35081 2643 ft 81 kts 111°
2026-05-04 20:14 46.99553 7.35438 2481 ft 66 kts 207°
2026-05-04 20:14 46.99353 7.34914 2326 ft 51 kts 262°
2026-05-04 20:14 46.99335 7.34497 2309 ft 38 kts 269°
2026-05-04 20:15 46.99312 7.34079 2433 ft 44 kts 272°
2026-05-04 20:15 46.99159 7.33608 2355 ft 50 kts 257°
2026-05-04 20:15 46.99249 7.33381 2221 ft 34 kts 16°
2026-05-04 20:15 46.99343 7.33419 2103 ft 3 kts 357°
2026-05-04 20:16 46.99353 7.33417 2094 ft 1 kts 346°
2026-05-04 20:16 46.99356 7.33408 2091 ft 1 kts 276°
2026-05-04 20:16 46.99356 7.33407 2091 ft 0 kts 274°
2026-05-04 20:32 46.99351 7.33418 2116 ft 9 kts 178°
2026-05-04 20:33 46.99300 7.33701 2356 ft 44 kts 107°
2026-05-04 20:33 46.99200 7.34314 2685 ft 75 kts 109°
2026-05-04 20:33 46.98959 7.35147 2890 ft 99 kts 117°
2026-05-04 20:33 46.98626 7.36083 3059 ft 108 kts 117°
2026-05-04 20:34 46.98293 7.37133 3121 ft 120 kts 114°
2026-05-04 20:34 46.97942 7.38286 3100 ft 127 kts 116°
2026-05-04 20:34 46.97556 7.39476 3054 ft 131 kts 114°
2026-05-04 20:34 46.97209 7.40746 2927 ft 137 kts 109°
2026-05-04 20:35 46.96900 7.42088 2763 ft 136 kts 113°
2026-05-04 20:35 46.96270 7.42906 2701 ft 117 kts 171°
2026-05-04 20:35 46.95513 7.42773 2660 ft 109 kts 210°
2026-05-04 20:35 46.94913 7.42131 2625 ft 105 kts 222°
2026-05-04 20:36 46.94555 7.41663 2605 ft 102 kts 220°
2026-05-04 20:36 46.93945 7.41458 2627 ft 87 kts 158°
2026-05-04 20:36 46.93859 7.42163 2494 ft 83 kts 33°
2026-05-04 20:36 46.94369 7.42114 2188 ft 65 kts
2026-05-04 20:37 46.94699 7.42259 1996 ft 40 kts 43°
2026-05-04 20:37 46.94818 7.42426 1924 ft 5 kts 45°
2026-05-04 20:37 46.94824 7.42429 1905 ft 2 kts 46°
2026-05-04 20:37 46.94827 7.42433 1900 ft 0 kts 46°
2026-05-04 20:54 46.94835 7.42453 1923 ft 16 kts 48°
2026-05-04 20:54 46.94865 7.42846 2070 ft 58 kts 83°
2026-05-04 20:55 46.94849 7.43606 2293 ft 87 kts 99°
2026-05-04 20:55 46.94611 7.44507 2399 ft 99 kts 120°
2026-05-04 20:55 46.94293 7.45425 2528 ft 105 kts 119°
2026-05-04 20:55 46.93840 7.46351 2480 ft 120 kts 130°
2026-05-04 20:56 46.93220 7.47259 2301 ft 134 kts 137°
2026-05-04 20:56 46.92513 7.48220 1988 ft 143 kts 135°
2026-05-04 20:56 46.91797 7.49218 1736 ft 140 kts 136°
2026-05-04 20:56 46.91168 7.50028 1709 ft 93 kts 146°
2026-05-04 20:57 46.90912 7.50372 1703 ft 15 kts 61°
2026-05-04 20:57 46.90958 7.50454 1679 ft 5 kts 45°
2026-05-04 20:57 46.90962 7.50458 1677 ft 0 kts 48°